Time;durP1;ratioP1;P1;durP2;ratioP2;P2;SDS_P1;SDS_P2;PMS_P1;PMS_P2;Temp;Humidity;BMP_temperature;BMP_pressure;BME280_temperature;BME280_humidity;BME280_pressure;Samples;Min_cycle;Max_cycle;Signal;HPM_P1;HPM_P2
2021/09/24 00:02:18;;;;;;;5.80;3.80;;;;;;;16.26;69.16;100567.19;5046858;28;20102;-52
2021/09/24 00:04:46;;;;;;;4.72;3.40;;;;;;;16.19;69.31;100560.56;5031719;28;20076;-52
2021/09/24 00:07:13;;;;;;;5.25;3.22;;;;;;;16.11;69.86;100570.88;5046894;28;20552;-52
2021/09/24 00:09:40;;;;;;;4.95;3.63;;;;;;;16.04;70.37;100565.13;5048266;28;20849;-50
2021/09/24 00:12:06;;;;;;;7.85;3.75;;;;;;;15.99;70.59;100563.69;5048720;28;20052;-51
2021/09/24 00:14:33;;;;;;;6.85;3.80;;;;;;;15.93;70.98;100564.94;5045925;28;20059;-52
2021/09/24 00:16:59;;;;;;;5.63;4.03;;;;;;;15.90;71.09;100564.31;5045208;28;20080;-52
2021/09/24 00:19:26;;;;;;;4.85;3.60;;;;;;;15.86;71.50;100565.47;5045241;28;20080;-52
2021/09/24 00:21:52;;;;;;;7.90;3.90;;;;;;;15.81;71.78;100559.56;5045094;28;20058;-52
2021/09/24 00:24:19;;;;;;;6.03;3.90;;;;;;;15.77;71.90;100569.59;5045689;28;20502;-52
2021/09/24 00:26:46;;;;;;;4.65;3.63;;;;;;;15.74;71.64;100562.63;5048421;28;20088;-55
2021/09/24 00:29:12;;;;;;;7.25;3.75;;;;;;;15.68;72.63;100565.72;5055310;28;20494;-51
2021/09/24 00:31:39;;;;;;;4.50;3.70;;;;;;;15.62;73.06;100562.59;5056898;28;20873;-51
2021/09/24 00:34:05;;;;;;;9.30;4.05;;;;;;;15.56;72.95;100566.53;5050604;28;20047;-53
2021/09/24 00:36:32;;;;;;;7.10;3.80;;;;;;;15.50;73.30;100561.53;5056457;28;20052;-52
2021/09/24 00:38:59;;;;;;;8.05;3.95;;;;;;;15.45;73.30;100559.16;5051165;28;20048;-51
2021/09/24 00:41:25;;;;;;;6.18;3.67;;;;;;;15.44;73.99;100556.59;5055893;28;20044;-51
2021/09/24 00:43:52;;;;;;;4.13;3.28;;;;;;;15.42;74.15;100558.53;5057282;28;20056;-52
2021/09/24 00:46:18;;;;;;;4.05;3.55;;;;;;;15.39;73.95;100564.06;5054690;28;20044;-52
2021/09/24 00:48:46;;;;;;;5.40;3.65;;;;;;;15.39;74.48;100553.38;5057381;28;20055;-51
2021/09/24 00:51:14;;;;;;;4.45;3.80;;;;;;;15.34;74.27;100548.34;5060690;28;20394;-53
2021/09/24 00:53:42;;;;;;;4.82;3.38;;;;;;;15.31;74.29;100553.84;5051566;28;20071;-51
2021/09/24 00:56:08;;;;;;;4.95;3.72;;;;;;;15.28;74.59;100550.53;5057521;28;20125;-52
2021/09/24 00:58:35;;;;;;;6.53;4.00;;;;;;;15.25;74.73;100548.94;5054237;28;20110;-52
2021/09/24 01:01:03;;;;;;;5.20;3.63;;;;;;;15.18;75.34;100541.41;5054385;28;20105;-52
2021/09/24 01:03:30;;;;;;;6.28;4.18;;;;;;;15.16;75.31;100543.31;5052436;28;20045;-53
2021/09/24 01:05:56;;;;;;;5.97;3.85;;;;;;;15.13;75.66;100536.34;5052215;28;20075;-52
2021/09/24 01:08:23;;;;;;;5.43;3.67;;;;;;;15.07;75.52;100534.09;5051469;28;20106;-52
2021/09/24 01:10:50;;;;;;;6.40;3.85;;;;;;;15.11;75.59;100532.91;5054927;28;20119;-52
2021/09/24 01:13:16;;;;;;;6.35;3.88;;;;;;;15.08;76.09;100527.81;5055645;28;20040;-52
2021/09/24 01:15:44;;;;;;;4.68;3.65;;;;;;;15.03;76.42;100529.91;5056898;28;20136;-51
2021/09/24 01:18:10;;;;;;;7.60;4.22;;;;;;;15.00;76.30;100524.75;5059345;28;20143;-52
2021/09/24 01:20:38;;;;;;;4.82;3.90;;;;;;;14.99;76.61;100539.03;5056222;28;20048;-52
2021/09/24 01:23:05;;;;;;;6.45;3.90;;;;;;;14.95;76.56;100533.03;5058638;28;20433;-52
2021/09/24 01:25:32;;;;;;;5.65;3.42;;;;;;;14.88;76.60;100517.53;5056209;28;20551;-52
2021/09/24 01:27:59;;;;;;;7.80;4.00;;;;;;;14.88;76.62;100514.88;5052763;28;20110;-52
2021/09/24 01:30:25;;;;;;;6.60;4.03;;;;;;;14.99;76.96;100534.56;5050563;28;20075;-52
2021/09/24 01:32:53;;;;;;;6.68;3.90;;;;;;;14.99;77.38;100534.56;5056124;28;20048;-52
2021/09/24 01:35:20;;;;;;;6.18;4.28;;;;;;;15.00;77.31;100541.63;5051512;28;20129;-52
2021/09/24 01:37:46;;;;;;;8.73;4.57;;;;;;;14.86;77.24;100512.28;5046194;28;20070;-51
2021/09/24 01:40:16;;;;;;;7.13;4.40;;;;;;;14.96;77.35;100540.09;5046653;28;20048;-53
2021/09/24 01:42:44;;;;;;;5.40;4.15;;;;;;;14.99;77.48;100526.56;5051143;28;20590;-52
2021/09/24 01:45:12;;;;;;;4.70;3.63;;;;;;;15.01;77.61;100539.81;5048774;28;20048;-52
2021/09/24 01:47:39;;;;;;;6.40;4.57;;;;;;;14.98;77.35;100535.50;5049847;28;20056;-53
2021/09/24 01:50:07;;;;;;;5.68;3.92;;;;;;;15.04;76.95;100528.94;5049504;28;20052;-51
2021/09/24 01:52:34;;;;;;;8.50;4.25;;;;;;;15.03;77.19;100532.56;5052584;28;20045;-52
2021/09/24 01:55:00;;;;;;;19.40;4.25;;;;;;;14.98;77.61;100524.84;5053747;28;20048;-52
2021/09/24 01:57:27;;;;;;;6.13;3.85;;;;;;;14.96;77.62;100525.88;5058811;28;20040;-52
2021/09/24 01:59:54;;;;;;;8.25;4.50;;;;;;;14.96;78.00;100528.56;5053833;28;20063;-53
2021/09/24 02:02:20;;;;;;;5.97;4.43;;;;;;;14.94;78.22;100526.03;5056062;28;20091;-52
2021/09/24 02:04:48;;;;;;;4.57;4.10;;;;;;;14.93;78.22;100529.63;5056673;28;20044;-52
2021/09/24 02:07:14;;;;;;;6.38;4.28;;;;;;;14.96;78.34;100523.22;5053034;28;20040;-52
2021/09/24 02:09:41;;;;;;;7.28;4.32;;;;;;;14.97;78.00;100524.94;5055751;28;20510;-51
2021/09/24 02:12:08;;;;;;;6.97;4.70;;;;;;;14.93;78.40;100516.31;5062470;28;20139;-52
2021/09/24 02:14:35;;;;;;;6.97;4.60;;;;;;;14.92;78.44;100519.91;5060359;28;20181;-51
2021/09/24 02:17:03;;;;;;;5.30;4.68;;;;;;;14.88;78.89;100518.38;5056087;28;20735;-51
2021/09/24 02:19:30;;;;;;;5.60;4.60;;;;;;;14.87;78.88;100522.00;5055498;28;20131;-52
2021/09/24 02:21:58;;;;;;;7.25;4.75;;;;;;;14.90;79.00;100521.81;5054542;28;20076;-52
2021/09/24 02:24:25;;;;;;;9.88;4.82;;;;;;;14.88;78.76;100517.53;5054608;28;20118;-51
2021/09/24 02:26:52;;;;;;;6.43;4.28;;;;;;;14.95;78.57;100522.38;5055435;28;20045;-52
2021/09/24 02:29:19;;;;;;;7.03;4.28;;;;;;;14.93;78.57;100518.13;5054891;28;20106;-51
2021/09/24 02:31:45;;;;;;;10.35;4.85;;;;;;;14.93;78.71;100524.31;5051520;28;20607;-51
2021/09/24 02:34:12;;;;;;;5.03;4.38;;;;;;;14.89;78.96;100522.78;5059176;28;20058;-52
2021/09/24 02:36:39;;;;;;;5.47;4.22;;;;;;;14.87;79.33;100521.16;5053692;28;20098;-52
2021/09/24 02:39:06;;;;;;;7.95;4.65;;;;;;;14.87;79.38;100523.81;5054018;28;20539;-52
2021/09/24 02:41:33;;;;;;;7.15;4.65;;;;;;;14.86;79.51;100527.44;5053522;28;20126;-52
2021/09/24 02:43:59;;;;;;;6.97;4.30;;;;;;;14.82;79.21;100532.09;5053736;28;20072;-54
2021/09/24 02:46:26;;;;;;;7.22;5.00;;;;;;;14.81;79.69;100525.03;5052241;28;20551;-52
2021/09/24 02:48:52;;;;;;;6.47;4.80;;;;;;;14.65;79.69;100511.81;5055309;28;20055;-52
2021/09/24 02:51:19;;;;;;;7.60;4.55;;;;;;;14.81;79.92;100529.53;5058603;28;20045;-52
2021/09/24 02:53:45;;;;;;;8.38;4.82;;;;;;;14.82;80.03;100537.44;5053066;28;20048;-52
2021/09/24 02:56:12;;;;;;;8.20;4.90;;;;;;;14.83;79.72;100533.81;5059819;28;20045;-52
2021/09/24 02:58:39;;;;;;;6.57;5.00;;;;;;;14.79;79.94;100529.66;5063649;28;20044;-51
2021/09/24 03:01:05;;;;;;;7.75;5.25;;;;;;;14.76;80.18;100532.50;5058035;28;20113;-51
2021/09/24 03:03:32;;;;;;;8.45;5.00;;;;;;;14.75;80.39;100536.09;5054984;28;20066;-52
2021/09/24 03:05:59;;;;;;;7.13;5.30;;;;;;;14.78;80.68;100537.72;5051679;28;20664;-52
2021/09/24 03:08:25;;;;;;;8.35;5.80;;;;;;;14.86;80.50;100532.75;5052670;28;20135;-51
2021/09/24 03:10:52;;;;;;;9.30;5.75;;;;;;;14.82;80.43;100529.44;5055895;28;20048;-52
2021/09/24 03:13:19;;;;;;;7.65;5.85;;;;;;;14.83;80.61;100532.94;5054560;28;20068;-51
2021/09/24 03:15:45;;;;;;;7.63;5.65;;;;;;;14.81;80.86;100535.72;5052315;28;20122;-52
2021/09/24 03:18:12;;;;;;;9.25;5.72;;;;;;;14.81;80.62;100533.03;5056988;28;20346;-52
2021/09/24 03:20:39;;;;;;;7.50;5.68;;;;;;;14.83;80.78;100531.16;5054311;28;20052;-54
2021/09/24 03:23:05;;;;;;;7.75;5.82;;;;;;;14.79;80.96;100526.97;5055042;28;20109;-52
2021/09/24 03:25:32;;;;;;;8.77;6.78;;;;;;;14.80;80.93;100526.00;5050855;28;20054;-54
2021/09/24 03:27:59;;;;;;;7.78;6.22;;;;;;;14.85;81.02;100531.06;5056674;28;20044;-51
2021/09/24 03:30:25;;;;;;;8.73;6.80;;;;;;;14.86;80.88;100536.28;5058417;28;20135;-51
2021/09/24 03:32:52;;;;;;;10.10;7.03;;;;;;;14.88;80.46;100531.72;5053581;28;20080;-52
2021/09/24 03:35:18;;;;;;;9.45;7.35;;;;;;;14.90;79.77;100519.16;5051627;28;21016;-51
2021/09/24 03:37:45;;;;;;;8.80;6.13;;;;;;;15.03;79.62;100540.56;5054920;28;20044;-51
2021/09/24 03:40:12;;;;;;;10.18;5.82;;;;;;;14.98;79.82;100540.00;5056542;28;20864;-52
2021/09/24 03:42:39;;;;;;;7.55;5.60;;;;;;;14.94;79.83;100541.16;5055109;28;20055;-51
2021/09/24 03:45:05;;;;;;;8.02;5.65;;;;;;;14.88;80.45;100547.72;5057168;28;20556;-53
2021/09/24 03:47:32;;;;;;;7.57;5.18;;;;;;;14.89;80.35;100548.56;5050138;28;20169;-52
2021/09/24 03:49:59;;;;;;;7.28;5.00;;;;;;;14.83;80.28;100549.81;5055906;28;20040;-51
2021/09/24 03:52:25;;;;;;;7.25;4.95;;;;;;;14.81;80.34;100546.38;5056327;28;20052;-51
2021/09/24 03:54:52;;;;;;;10.63;5.55;;;;;;;14.76;80.74;100548.50;5054620;28;20125;-54
2021/09/24 03:57:19;;;;;;;6.75;5.10;;;;;;;14.68;80.95;100550.75;5051958;28;20040;-52
2021/09/24 03:59:45;;;;;;;10.15;5.00;;;;;;;14.63;81.44;100544.88;5053660;28;20045;-53
2021/09/24 04:02:13;;;;;;;8.23;5.13;;;;;;;14.59;81.48;100551.31;5051721;28;20098;-52
2021/09/24 04:04:39;;;;;;;8.50;5.18;;;;;;;14.55;81.32;100548.00;5053629;28;20075;-51
2021/09/24 04:07:07;;;;;;;5.72;4.68;;;;;;;14.49;81.76;100539.50;5058776;28;20090;-51
2021/09/24 04:09:33;;;;;;;5.97;5.00;;;;;;;14.44;81.68;100544.25;5053182;28;20318;-53
2021/09/24 04:12:00;;;;;;;5.78;4.63;;;;;;;14.35;82.06;100551.81;5055825;28;20053;-51
2021/09/24 04:14:26;;;;;;;6.63;5.20;;;;;;;14.28;82.28;100553.16;5056648;28;20094;-52
2021/09/24 04:16:53;;;;;;;7.25;5.43;;;;;;;14.20;82.68;100552.72;5052679;28;20147;-52
2021/09/24 04:19:21;;;;;;;8.52;5.22;;;;;;;14.13;82.93;100554.06;5049014;28;20048;-51
2021/09/24 04:21:48;;;;;;;9.45;5.43;;;;;;;14.09;83.30;100547.19;5055645;28;20131;-52
2021/09/24 04:24:15;;;;;;;10.05;5.22;;;;;;;13.97;83.21;100551.44;5055481;28;20412;-50
2021/09/24 04:26:42;;;;;;;8.52;6.18;;;;;;;13.86;83.79;100553.00;5054226;28;20037;-51
2021/09/24 04:29:08;;;;;;;7.50;5.78;;;;;;;13.78;84.46;100564.09;5048311;28;20045;-52
2021/09/24 04:31:35;;;;;;;7.90;5.60;;;;;;;13.73;84.31;100559.97;5058309;28;20045;-52
2021/09/24 04:34:02;;;;;;;8.38;6.07;;;;;;;13.69;84.69;100556.66;5050688;28;20498;-52
2021/09/24 04:36:28;;;;;;;9.15;6.05;;;;;;;13.65;85.04;100553.31;5050752;28;20044;-52
2021/09/24 04:38:57;;;;;;;9.63;5.95;;;;;;;13.60;85.56;100560.69;5050872;28;20041;-52
2021/09/24 04:41:24;;;;;;;7.07;5.57;;;;;;;13.57;85.68;100567.97;5051208;28;20501;-51
2021/09/24 04:43:50;;;;;;;8.80;5.93;;;;;;;13.57;85.85;100567.97;5052455;28;20048;-52
2021/09/24 04:46:17;;;;;;;9.07;6.13;;;;;;;13.53;86.16;100563.78;5051232;28;20045;-53
2021/09/24 04:48:43;;;;;;;8.80;5.68;;;;;;;13.49;85.78;100563.09;5051590;28;20052;-52
2021/09/24 04:51:09;;;;;;;8.70;6.10;;;;;;;13.52;86.09;100564.72;5051718;28;20052;-52
2021/09/24 04:53:42;;;;;;;9.35;6.07;;;;;;;13.49;86.34;100563.09;5042176;28;20045;-53
2021/09/24 04:56:14;;;;;;;8.25;5.93;;;;;;;13.46;86.65;100557.94;5059429;28;20829;-53
2021/09/24 04:58:41;;;;;;;9.40;6.15;;;;;;;13.45;86.62;100558.88;5052628;28;20049;-52
2021/09/24 05:01:08;;;;;;;7.93;6.22;;;;;;;13.44;86.94;100569.59;5054957;28;20055;-51
2021/09/24 05:03:38;;;;;;;9.73;6.18;;;;;;;13.47;87.30;100580.09;5048020;28;20036;-51
2021/09/24 05:06:06;;;;;;;9.10;6.13;;;;;;;13.49;86.74;100575.53;5053225;28;20052;-51
2021/09/24 05:08:32;;;;;;;8.18;6.13;;;;;;;13.54;86.70;100582.28;5049969;28;20059;-53
2021/09/24 05:10:59;;;;;;;7.47;5.93;;;;;;;13.58;87.03;100583.84;5048852;28;20044;-51
2021/09/24 05:13:25;;;;;;;7.40;5.85;;;;;;;13.61;86.50;100588.16;5048136;28;20053;-51
2021/09/24 05:15:51;;;;;;;8.45;6.20;;;;;;;13.62;86.01;100581.88;5048652;28;20673;-52
2021/09/24 05:18:18;;;;;;;7.35;6.10;;;;;;;13.51;86.73;100563.88;5052189;28;20421;-52
2021/09/24 05:20:44;;;;;;;10.18;5.97;;;;;;;13.56;86.38;100566.25;5050174;28;20049;-51
2021/09/24 05:23:11;;;;;;;9.00;6.22;;;;;;;13.68;86.11;100582.41;5057070;28;20048;-53
2021/09/24 05:25:37;;;;;;;8.65;6.68;;;;;;;13.66;86.42;100580.78;5050594;28;20045;-52
2021/09/24 05:28:04;;;;;;;8.07;6.10;;;;;;;13.65;86.41;100582.56;5055000;28;20524;-52
2021/09/24 05:30:30;;;;;;;8.38;5.88;;;;;;;13.68;86.43;100579.75;5052434;28;20051;-51
2021/09/24 05:32:58;;;;;;;8.23;6.20;;;;;;;13.76;86.01;100581.94;5052036;28;20041;-52
2021/09/24 05:35:25;;;;;;;7.00;5.65;;;;;;;13.78;85.16;100588.03;5051690;28;20048;-52
2021/09/24 05:37:52;;;;;;;7.90;6.15;;;;;;;13.82;84.68;100576.28;5053110;28;20044;-51
2021/09/24 05:40:18;;;;;;;7.72;6.03;;;;;;;13.86;84.68;100576.94;5051572;28;20086;-52
2021/09/24 05:42:45;;;;;;;10.27;6.40;;;;;;;13.87;85.00;100571.53;5052916;28;20047;-51
2021/09/24 05:45:14;;;;;;;9.40;6.00;;;;;;;13.89;84.89;100568.78;5052575;28;21054;-51
2021/09/24 05:47:42;;;;;;;8.13;5.85;;;;;;;13.96;84.74;100572.81;5049000;28;20044;-50
2021/09/24 05:50:13;;;;;;;8.93;5.80;;;;;;;13.98;84.30;100570.94;5051956;28;20051;-52
2021/09/24 05:52:43;;;;;;;10.10;6.25;;;;;;;13.99;84.04;100572.66;5053701;28;20041;-51
2021/09/24 05:55:11;;;;;;;8.68;6.50;;;;;;;13.98;84.45;100570.94;5050749;28;20045;-51
2021/09/24 05:57:37;;;;;;;10.32;6.32;;;;;;;13.98;84.92;100570.94;5058529;28;20526;-52
2021/09/24 06:00:07;;;;;;;11.55;6.32;;;;;;;13.98;84.60;100573.59;5053325;28;20417;-57
2021/09/24 06:02:34;;;;;;;11.27;6.67;;;;;;;14.00;84.77;100580.56;5040348;28;20044;-52
2021/09/24 06:05:00;;;;;;;11.85;6.93;;;;;;;14.00;84.27;100587.69;5045634;28;20758;-52
2021/09/24 06:07:27;;;;;;;9.73;6.85;;;;;;;13.98;84.40;100585.09;5050363;28;20601;-53
2021/09/24 06:09:54;;;;;;;10.68;6.30;;;;;;;13.98;84.15;100585.09;5045069;28;20063;-51
2021/09/24 06:12:20;;;;;;;12.55;6.55;;;;;;;13.99;84.16;100589.50;5047258;28;20043;-50
2021/09/24 06:14:47;;;;;;;12.43;6.32;;;;;;;13.98;84.63;100586.91;5050051;28;20064;-51
2021/09/24 06:17:14;;;;;;;10.02;6.60;;;;;;;14.04;85.12;100581.22;5051054;28;20054;-53
2021/09/24 06:19:41;;;;;;;11.63;6.25;;;;;;;14.11;84.16;100584.38;5047119;28;20044;-52
2021/09/24 06:22:08;;;;;;;10.88;7.13;;;;;;;14.14;84.28;100582.41;5053961;28;20051;-52
2021/09/24 06:24:35;;;;;;;9.93;7.25;;;;;;;14.16;84.19;100590.31;5049824;28;20395;-51
2021/09/24 06:27:02;;;;;;;11.40;7.53;;;;;;;14.20;83.96;100592.69;5051417;28;20075;-52
2021/09/24 06:29:28;;;;;;;11.35;6.68;;;;;;;14.28;84.27;100584.25;5047225;28;20041;-52
2021/09/24 06:31:55;;;;;;;16.23;7.53;;;;;;;14.34;82.92;100587.41;5051478;28;20485;-52
2021/09/24 06:34:21;;;;;;;12.60;8.07;;;;;;;14.42;83.18;100583.47;5049712;28;20053;-51
2021/09/24 06:36:48;;;;;;;11.13;7.78;;;;;;;14.46;82.95;100583.19;5053486;28;20037;-52
2021/09/24 06:39:14;;;;;;;12.65;7.55;;;;;;;14.54;82.43;100598.72;5044418;28;20516;-52
2021/09/24 06:41:41;;;;;;;20.42;8.43;;;;;;;14.57;81.87;100590.53;5049413;28;20041;-50
2021/09/24 06:44:07;;;;;;;14.00;8.80;;;;;;;14.59;81.41;100589.50;5050322;28;20501;-52
2021/09/24 06:46:35;;;;;;;13.70;8.57;;;;;;;14.57;81.55;100593.19;5054518;28;20048;-52
2021/09/24 06:49:02;;;;;;;16.45;8.15;;;;;;;14.55;81.67;100595.09;5055561;28;20496;-53
2021/09/24 06:51:29;;;;;;;12.48;7.75;;;;;;;14.61;82.12;100598.25;5052717;28;20048;-53
2021/09/24 06:53:55;;;;;;;13.38;8.65;;;;;;;14.63;81.50;100601.69;5053532;28;20128;-51
2021/09/24 06:56:22;;;;;;;14.52;8.02;;;;;;;14.71;80.87;100595.88;5051019;28;20113;-53
2021/09/24 06:58:48;;;;;;;13.18;7.85;;;;;;;14.76;80.99;100604.47;5058244;28;20072;-51
2021/09/24 07:01:15;;;;;;;17.73;8.63;;;;;;;14.80;80.81;100605.97;5053272;28;20056;-52
2021/09/24 07:03:42;;;;;;;10.98;7.82;;;;;;;14.86;80.34;100602.94;5059167;28;20470;-51
2021/09/24 07:06:08;;;;;;;11.18;8.07;;;;;;;14.90;80.44;100604.47;5057149;28;20045;-52
2021/09/24 07:08:35;;;;;;;13.55;8.60;;;;;;;14.92;80.17;100596.38;5056389;28;20707;-52
2021/09/24 07:11:01;;;;;;;12.80;8.52;;;;;;;14.95;80.23;100597.03;5050347;28;20064;-52
2021/09/24 07:13:28;;;;;;;14.23;8.65;;;;;;;15.05;80.39;100602.66;5054191;28;20084;-52
2021/09/24 07:15:55;;;;;;;12.13;7.97;;;;;;;15.07;79.45;100606.97;5055091;28;20048;-52
2021/09/24 07:18:21;;;;;;;15.18;8.68;;;;;;;15.08;79.87;100607.81;5055349;28;20049;-53
2021/09/24 07:20:48;;;;;;;17.98;8.27;;;;;;;14.99;79.69;100603.91;5047040;28;21473;-52
2021/09/24 07:23:19;;;;;;;14.27;8.27;;;;;;;14.94;79.83;100615.81;5050036;28;20059;-51
2021/09/24 07:25:46;;;;;;;12.85;8.45;;;;;;;14.93;80.86;100614.97;5051450;28;20075;-53
2021/09/24 07:28:13;;;;;;;11.75;8.48;;;;;;;14.93;80.21;100603.44;5049967;28;20040;-52
2021/09/24 07:30:40;;;;;;;15.95;9.30;;;;;;;14.92;79.62;100607.91;5056479;28;20573;-52
2021/09/24 07:33:07;;;;;;;15.48;9.65;;;;;;;14.87;80.09;100609.13;5055980;28;20406;-51
2021/09/24 07:35:34;;;;;;;13.73;8.95;;;;;;;14.86;80.17;100605.59;5051165;28;20048;-53
2021/09/24 07:38:01;;;;;;;12.88;8.60;;;;;;;14.89;80.02;100613.44;5054915;28;20052;-52
2021/09/24 07:40:28;;;;;;;15.27;8.00;;;;;;;14.94;80.17;100603.34;5050247;28;20063;-54
2021/09/24 07:42:55;;;;;;;12.82;8.75;;;;;;;14.97;80.51;100610.28;5050256;28;20040;-51
2021/09/24 07:45:22;;;;;;;12.13;8.38;;;;;;;15.01;80.02;100606.47;5051029;28;20055;-52
2021/09/24 07:47:49;;;;;;;14.95;9.18;;;;;;;15.02;80.24;100606.38;5046518;28;20052;-53
2021/09/24 07:50:16;;;;;;;13.32;8.93;;;;;;;15.02;80.46;100603.72;5053009;28;20048;-56
2021/09/24 07:52:42;;;;;;;14.73;8.90;;;;;;;15.04;80.43;100619.63;5054556;28;20041;-52
2021/09/24 07:55:09;;;;;;;14.27;9.18;;;;;;;15.09;80.51;100614.88;5048802;28;20044;-53
2021/09/24 07:57:35;;;;;;;14.65;9.52;;;;;;;15.18;80.19;100608.09;5042965;28;20515;-52
2021/09/24 08:00:04;;;;;;;15.52;9.77;;;;;;;15.37;79.81;100614.84;5045718;28;20040;-52
2021/09/24 08:02:31;;;;;;;22.02;9.45;;;;;;;15.52;79.08;100613.00;5046217;28;20055;-51
2021/09/24 08:04:58;;;;;;;12.70;8.20;;;;;;;15.72;78.33;100609.09;5048759;28;20047;-51
2021/09/24 08:07:24;;;;;;;13.05;9.13;;;;;;;15.91;77.65;100608.72;5053209;28;20055;-52
2021/09/24 08:09:51;;;;;;;14.52;9.18;;;;;;;16.12;76.31;100612.66;5049927;28;21096;-52
2021/09/24 08:12:18;;;;;;;19.17;8.77;;;;;;;16.28;75.51;100608.03;5051900;28;20045;-55
2021/09/24 08:14:44;;;;;;;12.57;8.07;;;;;;;16.42;75.27;100604.41;5053185;28;20055;-52
2021/09/24 08:17:11;;;;;;;13.82;9.15;;;;;;;16.54;74.55;100616.94;5043540;28;20044;-52
2021/09/24 08:20:03;;;;;;;11.35;8.38;;;;;;;16.67;74.13;100612.53;5051435;28;20199;-52
2021/09/24 08:22:34;;;;;;;13.55;9.13;;;;;;;16.81;72.86;100600.88;5042402;28;20586;-51
2021/09/24 08:25:01;;;;;;;16.75;9.05;;;;;;;16.93;73.43;100610.69;5044155;28;20036;-52
2021/09/24 08:27:27;;;;;;;11.35;7.78;;;;;;;16.97;73.01;100614.88;5049435;28;20473;-52
2021/09/24 08:29:54;;;;;;;12.20;8.20;;;;;;;16.97;73.00;100622.91;5050990;28;20088;-51
2021/09/24 08:32:21;;;;;;;11.93;8.55;;;;;;;17.00;73.53;100616.50;5036300;28;20052;-51
2021/09/24 08:34:48;;;;;;;10.80;7.60;;;;;;;17.12;72.95;100613.81;5042372;28;20084;-51
2021/09/24 08:37:16;;;;;;;12.98;7.85;;;;;;;17.25;72.70;100610.25;5040362;28;20079;-51
2021/09/24 08:39:43;;;;;;;10.20;7.38;;;;;;;17.25;72.12;100605.75;5045409;28;20057;-51
2021/09/24 08:42:10;;;;;;;11.27;7.40;;;;;;;17.27;72.53;100608.31;5044338;28;20049;-52
2021/09/24 08:44:37;;;;;;;10.98;7.55;;;;;;;17.51;72.27;100601.19;5044925;28;22727;-52
2021/09/24 08:47:03;;;;;;;13.63;7.22;;;;;;;17.64;71.34;100607.41;5043771;28;20072;-53
2021/09/24 08:49:30;;;;;;;10.32;6.03;;;;;;;17.82;70.76;100600.69;5045876;28;20690;-50
2021/09/24 08:51:56;;;;;;;14.13;6.78;;;;;;;18.11;69.96;100603.03;5041562;28;20414;-52
2021/09/24 08:54:23;;;;;;;7.78;6.18;;;;;;;18.55;68.04;100605.91;5043109;28;20056;-52
2021/09/24 08:56:49;;;;;;;10.32;6.50;;;;;;;19.03;66.37;100605.78;5042035;28;20525;-53
2021/09/24 08:59:16;;;;;;;7.93;5.95;;;;;;;19.26;64.98;100599.41;5042134;28;20048;-51
2021/09/24 09:02:09;;;;;;;8.73;5.80;;;;;;;19.62;62.63;100592.09;5042965;28;20056;-53
2021/09/24 09:04:42;;;;;;;7.40;5.68;;;;;;;19.86;62.39;100605.34;5039538;28;20048;-52
2021/09/24 09:07:17;;;;;;;9.07;5.63;;;;;;;19.71;61.75;100598.53;5042957;28;20108;-52
2021/09/24 09:09:50;;;;;;;6.50;5.63;;;;;;;19.48;63.18;100606.63;5045504;28;20048;-51
2021/09/24 09:12:25;;;;;;;9.85;6.05;;;;;;;19.29;64.31;100603.69;5045857;28;20102;-53
2021/09/24 09:15:04;;;;;;;8.82;6.68;;;;;;;19.11;65.02;100605.16;5043272;28;20053;-52
2021/09/24 09:17:40;;;;;;;10.65;6.57;;;;;;;18.95;65.16;100613.56;5044838;28;20060;-54
2021/09/24 09:20:16;;;;;;;7.63;5.93;;;;;;;19.01;65.97;100609.53;5045228;28;20048;-52
2021/09/24 09:22:45;;;;;;;9.05;5.70;;;;;;;19.12;65.21;100610.41;5043766;28;20048;-52
2021/09/24 09:25:21;;;;;;;9.50;5.70;;;;;;;19.31;65.13;100604.44;5039664;28;20067;-53
2021/09/24 09:27:48;;;;;;;7.28;5.43;;;;;;;19.72;64.30;100602.94;5042526;28;20045;-52
2021/09/24 09:30:15;;;;;;;8.98;5.97;;;;;;;20.01;62.42;100598.69;5041389;28;20177;-53
2021/09/24 09:32:56;;;;;;;10.93;5.65;;;;;;;20.12;61.56;100600.50;5040293;28;20526;-53
2021/09/24 09:35:23;;;;;;;7.60;6.00;;;;;;;20.17;61.85;100603.66;5040304;28;20067;-52
2021/09/24 09:37:50;;;;;;;8.15;5.10;;;;;;;20.18;61.68;100610.75;5042794;28;20040;-51
2021/09/24 09:40:20;;;;;;;7.47;5.18;;;;;;;20.20;61.80;100601.56;5037208;28;20856;-52
2021/09/24 09:42:49;;;;;;;9.80;5.82;;;;;;;20.22;61.94;100610.38;5044831;28;20140;-51
2021/09/24 09:45:18;;;;;;;7.93;5.47;;;;;;;20.36;61.21;100603.84;5043986;28;20051;-54
2021/09/24 09:47:47;;;;;;;12.38;5.47;;;;;;;20.54;60.72;100602.28;5049203;28;20041;-53
2021/09/24 09:50:25;;;;;;;6.47;4.65;;;;;;;20.96;59.36;100591.50;5049286;28;20462;-52
2021/09/24 09:52:54;;;;;;;9.27;5.03;;;;;;;21.55;57.55;100606.97;5050893;28;20048;-52
2021/09/24 09:55:22;;;;;;;6.53;4.40;;;;;;;21.78;56.17;100597.66;5053497;28;20040;-51
2021/09/24 09:57:54;;;;;;;8.02;4.57;;;;;;;21.72;56.45;100600.06;5048228;28;20455;-52
2021/09/24 10:00:21;;;;;;;6.45;5.07;;;;;;;21.68;56.16;100594.94;5053525;28;20052;-52
2021/09/24 10:03:02;;;;;;;5.90;4.18;;;;;;;21.81;56.35;100594.69;5052699;28;20051;-52
2021/09/24 10:05:56;;;;;;;14.88;7.55;;;;;;;22.45;54.39;100594.19;5056868;28;20057;-52
2021/09/24 10:08:28;;;;;;;10.90;5.60;;;;;;;23.08;52.29;100592.66;5050586;28;20140;-52
2021/09/24 10:11:00;;;;;;;17.92;9.57;;;;;;;23.71;50.49;100594.66;5056226;28;20425;-52
2021/09/24 10:13:29;;;;;;;16.67;10.20;;;;;;;23.65;49.68;100596.09;5056774;28;20060;-52
2021/09/24 10:15:56;;;;;;;5.45;3.85;;;;;;;23.75;48.95;100591.50;5056772;28;20048;-52
2021/09/24 10:18:23;;;;;;;11.27;5.97;;;;;;;23.43;49.74;100585.69;5052682;28;20522;-52
2021/09/24 10:20:52;;;;;;;24.98;13.20;;;;;;;23.75;48.88;100585.25;5055404;28;20545;-52
2021/09/24 10:23:19;;;;;;;10.60;5.63;;;;;;;23.53;49.83;100591.06;5054953;28;20082;-51
2021/09/24 10:25:54;;;;;;;10.73;6.03;;;;;;;23.65;48.00;100584.44;5052744;28;20924;-52
2021/09/24 10:28:31;;;;;;;7.50;3.22;;;;;;;23.81;47.18;100581.91;5054056;28;20059;-50
2021/09/24 10:31:00;;;;;;;41.10;19.70;;;;;;;24.06;47.17;100581.19;5050814;28;20056;-51
2021/09/24 10:33:44;;;;;;;5.43;2.70;;;;;;;24.55;45.66;100588.91;5056637;28;20044;-51
2021/09/24 10:36:30;;;;;;;4.68;2.50;;;;;;;24.57;45.10;100568.78;5057872;28;20413;-51
2021/09/24 10:38:57;;;;;;;11.82;6.32;;;;;;;24.83;44.74;100583.22;5060912;28;20045;-52
2021/09/24 10:41:24;;;;;;;5.90;3.50;;;;;;;24.94;44.60;100562.28;5063410;28;20520;-52
2021/09/24 10:43:54;;;;;;;8.85;4.38;;;;;;;24.43;46.09;100572.06;5058799;28;20084;-52
2021/09/24 10:46:23;;;;;;;;;;;;;;;23.95;47.10;100580.53;5057995;28;20055;-52
2021/09/24 10:49:11;;;;;;;5.47;3.07;;;;;;;23.28;48.71;100574.53;5062868;28;20384;-54
2021/09/24 10:51:44;;;;;;;4.85;2.45;;;;;;;22.84;50.62;100567.13;5054042;28;20037;-51
2021/09/24 10:54:24;;;;;;;16.48;7.75;;;;;;;23.15;49.40;100555.06;5061349;28;20493;-51
2021/09/24 10:57:01;;;;;;;10.32;5.35;;;;;;;23.81;48.02;100562.13;5059818;28;20059;-52
2021/09/24 10:59:34;;;;;;;13.82;7.13;;;;;;;24.59;46.72;100557.78;5056288;28;20048;-52
2021/09/24 11:02:42;;;;;;;5.03;3.00;;;;;;;25.39;44.73;100552.00;5058072;28;20049;-53
2021/09/24 11:05:09;;;;;;;8.10;4.70;;;;;;;25.85;43.60;100547.09;5060156;28;20052;-52
2021/09/24 11:07:36;;;;;;;11.38;5.15;;;;;;;26.42;42.61;100553.44;5060544;28;21768;-52
2021/09/24 11:10:05;;;;;;;5.97;2.53;;;;;;;26.79;40.95;100541.16;5062978;28;20037;-51
2021/09/24 11:12:32;;;;;;;4.95;2.22;;;;;;;26.68;41.20;100538.81;5054606;28;20392;-51
2021/09/24 11:15:08;;;;;;;6.60;3.35;;;;;;;26.76;41.11;100534.19;5058271;28;20569;-54
2021/09/24 11:17:46;;;;;;;8.88;4.30;;;;;;;27.10;40.45;100533.97;5057961;28;20159;-52
2021/09/24 11:20:27;;;;;;;7.85;3.53;;;;;;;27.45;39.30;100538.06;5059437;28;20565;-53
2021/09/24 11:22:54;;;;;;;4.25;2.55;;;;;;;27.65;38.94;100532.22;5058151;28;20049;-54
2021/09/24 11:25:20;;;;;;;2.60;1.85;;;;;;;27.91;38.25;100535.44;5057242;28;20048;-52
2021/09/24 11:27:47;;;;;;;8.50;4.55;;;;;;;28.60;36.84;100528.09;5059635;28;20577;-51